Time;durP1;ratioP1;P1;durP2;ratioP2;P2;SDS_P1;SDS_P2;PMS_P1;PMS_P2;Temp;Humidity;BMP_temperature;BMP_pressure;BME280_temperature;BME280_humidity;BME280_pressure;Samples;Min_cycle;Max_cycle;Signal;HPM_P1;HPM_P2
2021/07/20 00:00:33;;;;;;;7.85;3.97;;;;;;;25.22;50.10;100184.66;4869242;29;20512;-73
2021/07/20 00:03:37;;;;;;;7.53;3.90;;;;;;;25.21;50.54;100188.44;4881084;29;20076;-73
2021/07/20 00:06:41;;;;;;;7.88;4.03;;;;;;;25.22;50.08;100184.66;4869554;29;20476;-73
2021/07/20 00:09:46;;;;;;;6.25;3.95;;;;;;;25.19;49.92;100183.22;4881012;29;20060;-73
2021/07/20 00:12:51;;;;;;;8.88;4.28;;;;;;;25.26;49.84;100188.59;4881146;29;20060;-73
2021/07/20 00:15:55;;;;;;;10.43;4.60;;;;;;;25.22;49.51;100187.41;4869154;29;20409;-73
2021/07/20 00:18:59;;;;;;;8.73;4.40;;;;;;;25.20;49.75;100195.03;4881099;29;20056;-73
2021/07/20 00:22:04;;;;;;;10.40;3.70;;;;;;;25.19;49.12;100190.59;4880524;29;20052;-73
2021/07/20 00:25:10;;;;;;;8.02;4.10;;;;;;;25.17;49.18;100188.09;4881017;29;20057;-74
2021/07/20 00:28:18;;;;;;;8.93;3.60;;;;;;;25.16;48.91;100180.91;4880940;29;20060;-74
2021/07/20 00:31:22;;;;;;;7.28;4.20;;;;;;;25.09;49.24;100180.19;4880956;29;20064;-73
2021/07/20 00:34:27;;;;;;;8.20;3.83;;;;;;;25.11;48.89;100177.19;4879924;29;20072;-73
2021/07/20 00:37:31;;;;;;;8.65;3.90;;;;;;;25.09;49.11;100177.44;4869436;29;20060;-74
2021/07/20 00:40:36;;;;;;;13.60;4.35;;;;;;;25.05;49.34;100176.22;4880113;29;20405;-73
2021/07/20 00:43:44;;;;;;;10.43;3.80;;;;;;;25.02;49.00;100176.69;4869281;29;20048;-73
2021/07/20 00:46:49;;;;;;;9.75;4.03;;;;;;;24.99;49.05;100177.16;4879509;29;20056;-73
2021/07/20 00:49:53;;;;;;;7.28;4.22;;;;;;;24.96;49.10;100161.13;4869093;29;20052;-74
2021/07/20 00:52:57;;;;;;;9.00;4.30;;;;;;;24.94;49.07;100171.50;4880334;29;20060;-74
2021/07/20 00:56:02;;;;;;;9.18;4.20;;;;;;;24.91;48.80;100169.22;4880105;29;20056;-74
2021/07/20 00:59:12;;;;;;;7.55;4.03;;;;;;;24.89;49.19;100162.28;4869023;29;20056;-73
2021/07/20 01:02:19;;;;;;;20.60;4.55;;;;;;;24.82;49.00;100165.13;4868427;29;20071;-74
2021/07/20 01:05:24;;;;;;;10.25;4.05;;;;;;;24.79;49.01;100159.28;4868655;29;20477;-73
2021/07/20 01:08:31;;;;;;;8.35;4.15;;;;;;;24.79;49.05;100159.28;4850567;29;20050;-74
2021/07/20 01:11:37;;;;;;;8.23;4.25;;;;;;;24.75;48.98;100171.75;4861104;29;20064;-74
2021/07/20 01:14:43;;;;;;;14.63;5.07;;;;;;;24.73;48.76;100166.50;4849912;29;20057;-74
2021/07/20 01:17:49;;;;;;;8.00;4.20;;;;;;;24.73;48.81;100161.00;4861639;29;20060;-74
2021/07/20 01:20:57;;;;;;;9.73;4.20;;;;;;;24.71;48.50;100156.81;4860579;29;20057;-74
2021/07/20 01:24:07;;;;;;;10.13;4.20;;;;;;;24.72;48.58;100164.81;4850412;29;20060;-74
2021/07/20 01:27:13;;;;;;;7.85;4.15;;;;;;;24.66;48.51;100160.25;4850032;29;20418;-74
2021/07/20 01:30:19;;;;;;;7.60;4.50;;;;;;;24.66;48.59;100163.00;4850176;29;20057;-75
2021/07/20 01:33:30;;;;;;;9.25;4.10;;;;;;;24.64;48.79;100156.88;4860349;29;20441;-74
2021/07/20 01:36:35;;;;;;;7.60;3.90;;;;;;;24.64;48.67;100156.88;4849816;29;20053;-75
2021/07/20 01:39:42;;;;;;;12.82;4.28;;;;;;;24.64;48.47;100156.06;4861451;29;20123;-75
2021/07/20 01:42:49;;;;;;;8.30;4.10;;;;;;;24.66;48.18;100157.50;4861365;29;20056;-75
2021/07/20 01:45:55;;;;;;;8.90;4.13;;;;;;;24.63;48.34;100149.72;4850094;29;20377;-74
2021/07/20 01:49:08;;;;;;;8.02;4.55;;;;;;;24.54;48.45;100151.13;4860759;29;20398;-74
2021/07/20 01:52:14;;;;;;;9.90;4.65;;;;;;;24.54;48.38;100156.63;4860899;29;20056;-75
2021/07/20 01:55:22;;;;;;;9.13;4.68;;;;;;;24.49;48.20;100154.53;4849587;29;20049;-74
2021/07/20 01:58:27;;;;;;;8.63;4.10;;;;;;;24.46;48.13;100155.00;4850145;29;20080;-74
2021/07/20 02:09:14;;;;;;;8.98;4.13;;;;;;;24.43;48.30;100146.41;4840700;29;20143;-74
2021/07/20 02:12:28;;;;;;;8.75;4.40;;;;;;;24.42;48.05;100150.19;4822254;29;20067;-74
2021/07/20 02:15:48;;;;;;;11.65;4.40;;;;;;;24.37;47.54;100144.56;4825013;29;20147;-74
2021/07/20 02:19:09;;;;;;;13.98;3.88;;;;;;;24.37;47.73;100145.41;4825861;29;20130;-74
2021/07/20 02:22:31;;;;;;;8.32;3.58;;;;;;;24.35;47.73;100142.03;4815142;29;20050;-74
2021/07/20 02:25:41;;;;;;;14.82;3.85;;;;;;;24.34;47.73;100140.34;4825670;29;20053;-74
2021/07/20 02:28:50;;;;;;;9.35;4.55;;;;;;;24.31;47.54;100140.00;4825409;29;20493;-74
2021/07/20 02:31:57;;;;;;;9.82;4.07;;;;;;;24.29;47.94;100148.47;4825428;29;20155;-74
2021/07/20 02:35:05;;;;;;;9.02;3.95;;;;;;;24.27;47.70;100138.78;4825529;29;20061;-75
2021/07/20 02:38:13;;;;;;;8.18;4.07;;;;;;;24.24;47.91;100139.25;4825668;29;20446;-74
2021/07/20 02:41:20;;;;;;;11.38;4.13;;;;;;;24.28;47.65;100145.94;4855759;29;20056;-74
2021/07/20 02:44:27;;;;;;;9.55;4.28;;;;;;;24.27;47.81;100133.31;4852410;29;20049;-74
2021/07/20 02:47:33;;;;;;;9.82;4.05;;;;;;;24.22;47.58;100144.13;4864012;29;20056;-74
2021/07/20 02:50:40;;;;;;;8.80;4.15;;;;;;;24.24;47.72;100139.25;4863118;29;20065;-74
2021/07/20 02:53:57;;;;;;;8.75;4.65;;;;;;;24.26;47.26;100142.59;4864095;29;20072;-74
2021/07/20 02:57:06;;;;;;;8.63;4.28;;;;;;;24.23;47.15;100138.41;4864043;29;20057;-75
2021/07/20 03:00:13;;;;;;;9.75;4.07;;;;;;;24.16;47.51;100132.16;4863742;29;20049;-75
2021/07/20 03:03:38;;;;;;;12.65;3.97;;;;;;;24.12;47.11;100130.91;4863632;29;20060;-75
2021/07/20 03:06:59;;;;;;;10.18;4.55;;;;;;;24.06;47.20;100134.53;4873377;29;20061;-74
2021/07/20 03:10:07;;;;;;;9.95;4.53;;;;;;;24.07;47.63;100138.13;4882121;29;20056;-75
2021/07/20 03:13:13;;;;;;;9.77;4.07;;;;;;;24.08;46.99;100143.41;4870810;29;20068;-75
2021/07/20 03:16:29;;;;;;;9.48;4.03;;;;;;;24.01;47.45;100144.50;4870764;29;20064;-75
2021/07/20 03:19:36;;;;;;;12.40;3.95;;;;;;;23.98;46.96;100153.19;4881455;29;20059;-75
2021/07/20 03:22:44;;;;;;;7.65;3.58;;;;;;;24.00;47.16;100162.03;4870418;29;20130;-76
2021/07/20 03:25:56;;;;;;;11.88;4.28;;;;;;;24.03;48.75;100165.16;4880950;29;20416;-75
2021/07/20 03:29:07;;;;;;;8.57;3.72;;;;;;;23.94;48.78;100172.84;4860193;29;20508;-75
2021/07/20 03:32:16;;;;;;;8.75;4.55;;;;;;;23.82;49.50;100162.84;4860032;29;20052;-75
2021/07/20 03:35:21;;;;;;;7.05;4.25;;;;;;;23.80;49.58;100173.19;4870170;29;20059;-75
2021/07/20 03:38:27;;;;;;;10.50;4.75;;;;;;;23.79;49.91;100180.59;4870192;29;20508;-74
2021/07/20 03:41:40;;;;;;;8.65;4.18;;;;;;;23.74;50.00;100180.41;4869903;29;20437;-74
2021/07/20 03:44:45;;;;;;;8.50;4.20;;;;;;;23.67;50.29;100182.38;4881583;29;20052;-74
2021/07/20 03:47:52;;;;;;;7.70;4.30;;;;;;;23.62;50.20;100176.72;4880666;29;20056;-75
2021/07/20 03:51:17;;;;;;;9.95;4.70;;;;;;;23.54;49.69;100168.78;4881243;29;20060;-74
2021/07/20 03:54:23;;;;;;;9.90;4.28;;;;;;;23.47;49.90;100173.47;4881698;29;20496;-74
2021/07/20 03:57:29;;;;;;;10.05;4.55;;;;;;;23.58;50.36;100178.22;4881626;29;20063;-75
2021/07/20 04:00:35;;;;;;;11.25;4.30;;;;;;;23.60;50.39;100181.56;4881554;29;20044;-74
2021/07/20 04:03:43;;;;;;;8.18;4.05;;;;;;;23.68;50.53;100180.44;4870034;29;20053;-74
2021/07/20 04:07:11;;;;;;;12.55;4.70;;;;;;;23.77;49.99;100181.88;4880533;29;20405;-75
2021/07/20 04:10:31;;;;;;;7.38;4.07;;;;;;;23.80;49.57;100182.25;4880878;29;20053;-74
2021/07/20 04:13:56;;;;;;;11.13;4.05;;;;;;;23.93;48.69;100186.78;4869571;29;20068;-74
2021/07/20 04:17:20;;;;;;;9.50;4.85;;;;;;;23.99;47.25;100185.03;4869290;29;20045;-75
2021/07/20 04:20:25;;;;;;;12.25;4.93;;;;;;;24.08;47.36;100194.69;4877248;29;20052;-74
2021/07/20 04:23:30;;;;;;;9.80;4.78;;;;;;;24.19;47.23;100196.69;4855733;29;20052;-74
2021/07/20 04:26:44;;;;;;;14.60;4.10;;;;;;;24.34;47.93;100187.00;4850602;29;20496;-75
2021/07/20 04:29:49;;;;;;;12.27;4.90;;;;;;;24.40;48.86;100185.25;4862224;29;20058;-75
2021/07/20 04:32:55;;;;;;;17.90;4.45;;;;;;;24.45;48.88;100191.75;4861315;29;20065;-75
2021/07/20 04:36:07;;;;;;;9.88;4.32;;;;;;;24.54;47.26;100200.53;4861597;29;20045;-74
2021/07/20 04:39:12;;;;;;;15.95;5.13;;;;;;;24.77;47.08;100203.44;4860430;29;20056;-74
2021/07/20 04:42:16;;;;;;;13.45;5.05;;;;;;;24.97;45.88;100204.00;4875327;29;20052;-75
2021/07/20 04:45:23;;;;;;;12.23;4.50;;;;;;;25.31;44.98;100198.91;4880791;29;20060;-74
2021/07/20 04:48:34;;;;;;;17.88;4.93;;;;;;;25.68;44.40;100208.69;4869322;29;20049;-75
2021/07/20 04:51:51;;;;;;;12.18;4.35;;;;;;;26.24;43.68;100209.03;4868858;29;20048;-75
2021/07/20 04:54:57;;;;;;;11.30;3.90;;;;;;;26.76;42.51;100217.38;4868945;29;20065;-75
2021/07/20 04:58:02;;;;;;;12.85;4.20;;;;;;;27.20;42.90;100222.13;4868786;29;20064;-76
2021/07/20 05:01:09;;;;;;;11.30;4.53;;;;;;;27.64;42.83;100226.00;4869141;29;20053;-75
2021/07/20 05:04:16;;;;;;;12.60;4.30;;;;;;;27.73;44.04;100232.78;4869148;29;20041;-75
2021/07/20 05:07:24;;;;;;;12.55;5.10;;;;;;;28.14;43.72;100231.56;4879865;29;20498;-73
2021/07/20 05:10:32;;;;;;;11.25;4.43;;;;;;;28.41;42.71;100231.69;4879432;29;20041;-73
2021/07/20 05:13:59;;;;;;;15.55;10.48;;;;;;;28.91;40.86;100213.09;4880179;29;20060;-75
2021/07/20 05:17:05;;;;;;;12.65;5.20;;;;;;;29.08;39.21;100218.53;4868526;29;20488;-74
2021/07/20 05:20:15;;;;;;;11.02;5.22;;;;;;;29.95;38.85;100233.84;4850045;29;20513;-74
2021/07/20 05:23:41;;;;;;;12.38;4.47;;;;;;;30.39;37.74;100228.97;4860024;29;20048;-74
2021/07/20 05:27:13;;;;;;;14.40;4.35;;;;;;;31.50;35.48;100233.06;4822767;29;20077;-74
2021/07/20 05:30:18;;;;;;;12.70;4.22;;;;;;;32.04;35.17;100235.38;4822223;29;20478;-74
2021/07/20 05:33:23;;;;;;;13.30;4.22;;;;;;;32.86;33.46;100243.31;4822054;29;20047;-75
2021/07/20 05:36:40;;;;;;;11.50;4.22;;;;;;;33.81;32.32;100232.81;4822444;29;20078;-76
2021/07/20 05:39:48;;;;;;;11.15;4.38;;;;;;;34.53;31.29;100243.06;4838765;29;20146;-75
2021/07/20 05:42:58;;;;;;;12.85;3.40;;;;;;;34.84;30.79;100247.19;4830239;29;20060;-75
2021/07/20 05:46:13;;;;;;;14.90;4.03;;;;;;;35.73;30.28;100232.31;4840081;29;20053;-74
2021/07/20 05:49:17;;;;;;;13.32;4.00;;;;;;;36.38;29.29;100241.59;4841103;29;20063;-74
2021/07/20 05:52:24;;;;;;;9.20;3.58;;;;;;;37.83;27.60;100244.41;4832987;29;20045;-74
2021/07/20 05:55:35;;;;;;;7.97;3.15;;;;;;;38.42;26.82;100236.81;4828699;29;20525;-74
2021/07/20 05:58:39;;;;;;;8.82;3.20;;;;;;;39.46;25.83;100245.28;4832514;29;20101;-75
2021/07/20 06:01:45;;;;;;;10.40;3.60;;;;;;;40.57;24.93;100244.44;4840497;29;20538;-76
2021/07/20 06:04:54;;;;;;;9.13;3.38;;;;;;;40.76;25.03;100242.88;4861847;29;20052;-75
2021/07/20 06:07:59;;;;;;;9.20;3.97;;;;;;;41.73;23.82;100240.84;4861677;29;20068;-75
2021/07/20 06:11:04;;;;;;;8.73;2.97;;;;;;;42.80;23.28;100249.22;4873567;29;20052;-75
2021/07/20 06:14:11;;;;;;;7.40;3.20;;;;;;;42.73;22.94;100247.00;4863619;29;20045;-75
2021/07/20 06:17:20;;;;;;;5.82;3.05;;;;;;;43.69;21.93;100256.63;4844887;29;20049;-75
2021/07/20 06:20:23;;;;;;;7.45;3.50;;;;;;;43.84;22.48;100247.41;4845657;29;20057;-73
2021/07/20 06:23:38;;;;;;;7.53;3.38;;;;;;;44.38;21.28;100256.25;4863532;29;20068;-73
2021/07/20 06:26:43;;;;;;;13.02;3.60;;;;;;;45.22;21.19;100263.38;4863018;29;20065;-74
2021/07/20 06:29:55;;;;;;;7.78;3.05;;;;;;;46.07;19.44;100259.66;4862966;29;20060;-75
2021/07/20 06:33:00;;;;;;;6.75;2.83;;;;;;;45.90;20.26;100260.06;4868928;29;20073;-75
2021/07/20 06:36:06;;;;;;;6.53;2.63;;;;;;;46.02;20.15;100257.13;4898786;29;20516;-75
2021/07/20 06:39:14;;;;;;;6.85;2.97;;;;;;;47.42;19.08;100260.88;4863809;29;20052;-74
2021/07/20 06:42:19;;;;;;;6.75;2.30;;;;;;;46.97;19.27;100264.63;4869589;29;20520;-74
2021/07/20 06:45:24;;;;;;;5.88;2.70;;;;;;;47.57;18.47;100277.00;4867833;29;20119;-75
2021/07/20 06:48:29;;;;;;;9.05;3.22;;;;;;;47.91;18.30;100274.22;4881044;29;20052;-74
2021/07/20 06:51:34;;;;;;;9.50;2.92;;;;;;;47.87;18.85;100273.34;4880131;29;20060;-74
2021/07/20 06:54:39;;;;;;;7.78;3.10;;;;;;;47.86;18.72;100274.53;4879470;29;20064;-73
2021/07/20 06:57:46;;;;;;;6.45;2.70;;;;;;;49.01;18.17;100271.41;4879232;29;20113;-74
2021/07/20 07:00:54;;;;;;;6.93;3.00;;;;;;;48.71;17.87;100274.38;4878412;29;20686;-74
2021/07/20 07:04:12;;;;;;;7.18;2.80;;;;;;;49.78;17.45;100282.53;4879464;29;20056;-73
2021/07/20 07:07:20;;;;;;;9.40;2.95;;;;;;;49.15;17.73;100276.38;4868304;29;20404;-72
2021/07/20 07:10:25;;;;;;;6.28;2.60;;;;;;;50.33;17.03;100274.66;4853964;29;20064;-73
2021/07/20 07:13:32;;;;;;;7.85;2.97;;;;;;;49.58;18.05;100271.84;4872308;29;20417;-73
2021/07/20 07:16:42;;;;;;;7.07;3.25;;;;;;;49.02;17.81;100277.91;4872675;29;20056;-73
2021/07/20 07:19:50;;;;;;;9.38;2.70;;;;;;;49.83;17.47;100273.59;4862728;29;20064;-73
2021/07/20 07:22:55;;;;;;;5.57;2.60;;;;;;;50.19;17.54;100280.31;4853872;29;20064;-73
2021/07/20 07:26:01;;;;;;;6.47;2.85;;;;;;;50.26;16.67;100274.63;4862975;29;20077;-73
2021/07/20 07:29:08;;;;;;;8.70;3.13;;;;;;;51.39;16.58;100277.63;4862702;29;20065;-73
2021/07/20 07:32:13;;;;;;;11.70;2.97;;;;;;;49.67;17.86;100278.00;4876040;29;20055;-74
2021/07/20 07:35:17;;;;;;;5.82;2.85;;;;;;;50.54;17.32;100273.88;4881119;29;20056;-73
2021/07/20 07:38:23;;;;;;;8.30;2.80;;;;;;;50.78;17.11;100275.16;4881020;29;20060;-73
2021/07/20 07:41:28;;;;;;;10.25;3.13;;;;;;;50.59;17.08;100276.38;4880865;29;20119;-73
2021/07/20 07:44:33;;;;;;;9.25;2.92;;;;;;;50.34;17.07;100281.19;4880614;29;20063;-73
2021/07/20 07:47:39;;;;;;;10.18;3.80;;;;;;;53.37;15.61;100277.34;4880321;29;20405;-73
2021/07/20 07:50:43;;;;;;;9.93;2.90;;;;;;;53.99;15.35;100274.22;4869100;29;20056;-73
2021/07/20 07:53:49;;;;;;;7.85;3.17;;;;;;;53.11;15.20;100280.88;4880281;29;20076;-72
2021/07/20 07:56:54;;;;;;;10.88;3.58;;;;;;;51.66;16.42;100281.66;4869192;29;20056;-74
2021/07/20 08:00:00;;;;;;;11.32;3.30;;;;;;;50.45;17.11;100273.44;4869318;29;20048;-74
2021/07/20 08:03:07;;;;;;;11.38;3.50;;;;;;;51.51;16.20;100282.09;4880447;29;20524;-73
2021/07/20 08:06:20;;;;;;;9.80;3.38;;;;;;;51.41;16.35;100282.94;4869051;29;20041;-74
2021/07/20 08:09:27;;;;;;;7.57;3.10;;;;;;;50.83;16.53;100272.72;4880261;29;20060;-74
2021/07/20 08:12:32;;;;;;;11.45;3.00;;;;;;;51.88;16.22;100282.38;4880246;29;20048;-74
2021/07/20 08:15:37;;;;;;;11.43;3.10;;;;;;;52.17;16.13;100286.81;4879952;29;20052;-74
2021/07/20 08:18:43;;;;;;;4.18;3.05;;;;;;;50.96;16.37;100285.41;4880024;29;20053;-74
2021/07/20 08:21:50;;;;;;;16.52;3.50;;;;;;;50.27;17.32;100284.03;4879993;29;20064;-74
2021/07/20 08:25:05;;;;;;;7.35;2.88;;;;;;;49.14;17.67;100271.91;4868599;29;20056;-73
2021/07/20 08:28:16;;;;;;;8.55;2.92;;;;;;;46.58;20.00;100273.63;4879881;29;20056;-73
2021/07/20 08:31:22;;;;;;;9.90;3.20;;;;;;;44.08;22.14;100280.44;4879985;29;20056;-73
2021/07/20 08:34:28;;;;;;;6.10;2.80;;;;;;;42.78;23.83;100284.66;4860970;29;20056;-73
2021/07/20 08:37:35;;;;;;;6.30;3.30;;;;;;;41.73;24.50;100269.03;4865634;29;20056;-73
2021/07/20 08:40:48;;;;;;;11.95;3.20;;;;;;;40.43;26.09;100269.13;4879022;29;20500;-73
2021/07/20 08:44:44;;;;;;;7.13;3.75;;;;;;;38.69;28.17;100278.72;4879536;29;20056;-73
2021/07/20 08:48:11;;;;;;;10.65;3.88;;;;;;;37.87;29.51;100273.53;4817771;29;20061;-73
2021/07/20 08:51:29;;;;;;;7.70;3.63;;;;;;;37.22;30.60;100272.16;4822006;29;20054;-72
2021/07/20 08:54:55;;;;;;;7.40;3.60;;;;;;;36.86;30.48;100264.44;4822659;29;20061;-73
2021/07/20 08:58:11;;;;;;;10.30;3.78;;;;;;;36.83;30.61;100264.25;4822092;29;20131;-73
2021/07/20 09:01:35;;;;;;;8.82;3.60;;;;;;;36.76;31.22;100267.47;4822544;29;20058;-73
2021/07/20 09:04:56;;;;;;;10.95;3.55;;;;;;;36.87;31.30;100268.91;4821574;29;20139;-73
2021/07/20 09:08:17;;;;;;;8.30;3.50;;;;;;;36.83;31.12;100264.25;4821041;29;20054;-73
2021/07/20 09:11:41;;;;;;;12.90;4.28;;;;;;;35.99;31.78;100268.25;4821690;29;20065;-74
2021/07/20 09:14:45;;;;;;;9.98;4.68;;;;;;;36.00;32.17;100270.75;4811831;29;20053;-73
2021/07/20 09:18:08;;;;;;;9.40;3.85;;;;;;;35.78;33.08;100262.97;4821548;29;20534;-72
2021/07/20 09:21:15;;;;;;;11.57;4.30;;;;;;;35.69;33.66;100267.59;4803985;29;20547;-73
2021/07/20 09:24:28;;;;;;;10.65;4.07;;;;;;;35.56;33.64;100264.72;4861926;29;20056;-73
2021/07/20 09:27:56;;;;;;;6.57;4.00;;;;;;;36.01;33.21;100266.84;4864734;29;20497;-73
2021/07/20 09:31:06;;;;;;;12.18;4.30;;;;;;;35.71;33.26;100264.50;4864459;29;20057;-73
2021/07/20 09:34:29;;;;;;;14.52;4.80;;;;;;;35.53;34.12;100273.72;4852525;29;20072;-73
2021/07/20 09:37:53;;;;;;;10.18;4.47;;;;;;;35.25;34.18;100267.91;4864396;29;20072;-73
2021/07/20 09:41:20;;;;;;;11.25;4.18;;;;;;;35.62;33.90;100271.91;4852894;29;20049;-73
2021/07/20 09:44:43;;;;;;;9.65;4.10;;;;;;;35.82;33.34;100264.06;4864607;29;20072;-73
2021/07/20 09:47:53;;;;;;;;;;;;;;;35.43;34.67;100271.03;4864311;29;20052;-73
2021/07/20 09:51:21;;;;;;;8.80;4.03;;;;;;;35.59;34.06;100267.75;4864089;29;19920;-73
2021/07/20 09:55:00;;;;;;;9.05;4.28;;;;;;;35.58;34.59;100268.06;4863942;29;20056;-73
2021/07/20 09:58:28;;;;;;;11.77;4.97;;;;;;;34.91;35.32;100264.38;4881408;29;20056;-72
2021/07/20 10:01:38;;;;;;;7.93;4.43;;;;;;;35.00;35.08;100272.94;4864184;29;20065;-74
2021/07/20 10:05:19;;;;;;;6.95;3.92;;;;;;;35.31;35.09;100271.44;4852456;29;20049;-73
2021/07/20 10:08:40;;;;;;;11.57;4.40;;;;;;;35.33;35.14;100269.22;4867558;29;20075;-73
2021/07/20 10:11:53;;;;;;;10.70;4.40;;;;;;;35.62;35.07;100263.53;4881948;29;20037;-73
2021/07/20 10:15:09;;;;;;;6.57;4.53;;;;;;;35.57;34.66;100260.81;4882090;29;20060;-73
2021/07/20 10:18:21;;;;;;;7.38;4.05;;;;;;;35.58;35.00;100257.69;4881658;29;20052;-73
2021/07/20 10:21:28;;;;;;;10.23;4.85;;;;;;;35.52;34.90;100258.09;4866748;29;20052;-73
2021/07/20 10:24:38;;;;;;;8.07;4.53;;;;;;;35.35;34.53;100260.53;4881509;29;20057;-73
2021/07/20 10:27:56;;;;;;;13.43;4.25;;;;;;;35.18;35.49;100249.88;4881997;29;20052;-73
2021/07/20 10:31:11;;;;;;;7.57;4.07;;;;;;;35.28;35.01;100244.97;4882101;29;20075;-73
2021/07/20 10:34:18;;;;;;;8.10;4.35;;;;;;;35.17;35.57;100251.84;4880945;29;20056;-73
2021/07/20 10:37:29;;;;;;;8.23;4.47;;;;;;;34.87;36.00;100254.97;4881442;29;20048;-74
2021/07/20 10:40:35;;;;;;;6.85;4.22;;;;;;;34.62;35.95;100241.31;4881200;29;20049;-74
2021/07/20 10:43:54;;;;;;;8.68;5.22;;;;;;;34.86;35.47;100244.94;4869545;29;20048;-73
2021/07/20 10:47:02;;;;;;;14.77;5.13;;;;;;;34.88;36.38;100242.69;4881154;29;20056;-73
2021/07/20 10:50:23;;;;;;;8.45;4.35;;;;;;;34.81;36.92;100247.78;4875875;29;20052;-73
2021/07/20 10:53:36;;;;;;;11.27;5.03;;;;;;;34.55;36.89;100238.03;4880368;29;20498;-73
2021/07/20 10:56:58;;;;;;;9.70;4.88;;;;;;;34.34;37.01;100231.00;4881737;29;20060;-73
2021/07/20 11:00:06;;;;;;;10.93;5.32;;;;;;;34.46;36.83;100242.56;4880775;29;20408;-73
2021/07/20 11:03:21;;;;;;;11.50;5.25;;;;;;;34.35;36.49;100243.78;4881583;29;20065;-72
2021/07/20 11:06:27;;;;;;;8.30;4.68;;;;;;;34.48;36.54;100237.53;4881201;29;20049;-73
2021/07/20 11:09:32;;;;;;;10.55;3.85;;;;;;;34.70;36.04;100237.03;4880454;29;20060;-73
2021/07/20 11:12:40;;;;;;;8.45;4.95;;;;;;;34.34;36.19;100234.63;4881152;29;20060;-73
2021/07/20 11:15:55;;;;;;;9.50;4.50;;;;;;;34.03;36.96;100225.66;4881037;29;20162;-73
2021/07/20 11:19:02;;;;;;;8.32;4.15;;;;;;;34.08;36.76;100229.53;4881121;29;20119;-73
2021/07/20 11:22:08;;;;;;;9.98;4.95;;;;;;;34.02;36.45;100223.19;4880597;29;20056;-73
2021/07/20 11:25:14;;;;;;;9.02;4.40;;;;;;;34.02;36.49;100223.19;4869415;29;20060;-73
2021/07/20 11:28:19;;;;;;;9.18;4.70;;;;;;;34.06;36.57;100213.13;4881146;29;20060;-73
2021/07/20 11:31:37;;;;;;;11.85;4.30;;;;;;;34.01;37.19;100216.78;4880595;29;20052;-73
2021/07/20 11:34:46;;;;;;;8.07;4.15;;;;;;;34.14;37.24;100208.88;4877248;29;20080;-73
2021/07/20 11:38:02;;;;;;;5.00;3.85;;;;;;;34.19;36.77;100206.06;4869123;29;20068;-73
2021/07/20 11:41:36;;;;;;;6.35;3.63;;;;;;;34.06;35.73;100196.41;4880719;29;20056;-73
2021/07/20 11:44:47;;;;;;;9.85;3.72;;;;;;;34.00;37.30;100192.81;4880704;29;20056;-73
2021/07/20 11:48:12;;;;;;;6.72;3.60;;;;;;;34.07;36.30;100192.53;4866721;29;20401;-73
2021/07/20 11:51:31;;;;;;;8.73;3.63;;;;;;;34.11;36.23;100189.97;4879814;29;20076;-73
2021/07/20 11:54:50;;;;;;;5.22;3.08;;;;;;;34.08;35.59;100194.16;4880184;29;20512;-73
2021/07/20 11:58:13;;;;;;;5.43;3.45;;;;;;;34.13;35.76;100190.50;4880067;29;20048;-73
2021/07/20 12:01:46;;;;;;;5.45;3.17;;;;;;;34.02;36.13;100192.53;4879630;29;20047;-73
2021/07/20 12:04:53;;;;;;;6.63;3.40;;;;;;;34.19;35.88;100200.47;4858040;29;20052;-72
2021/07/20 12:08:16;;;;;;;7.97;3.55;;;;;;;34.28;36.24;100205.13;4880075;29;20051;-73
2021/07/20 12:11:25;;;;;;;7.10;3.45;;;;;;;34.06;35.71;100188.06;4879353;29;20086;-73
2021/07/20 12:14:30;;;;;;;5.32;3.28;;;;;;;33.79;36.06;100185.75;4879958;29;20516;-73
2021/07/20 12:17:34;;;;;;;7.03;3.13;;;;;;;33.90;36.08;100184.53;4870573;29;20509;-73
2021/07/20 12:20:42;;;;;;;7.32;3.03;;;;;;;34.07;35.97;100184.16;4879721;29;20056;-73
2021/07/20 12:23:46;;;;;;;4.90;3.08;;;;;;;34.21;36.01;100178.72;4880215;29;20060;-72
2021/07/20 12:26:51;;;;;;;10.00;3.20;;;;;;;34.27;35.60;100177.56;4879938;29;20068;-73
2021/07/20 12:29:56;;;;;;;4.07;2.90;;;;;;;34.10;35.99;100164.03;4879745;29;20500;-73
2021/07/20 12:33:13;;;;;;;10.45;3.80;;;;;;;34.02;35.88;100156.31;4868388;29;20068;-72
2021/07/20 12:36:19;;;;;;;7.90;3.35;;;;;;;33.99;36.03;100160.50;4873288;29;20059;-72
2021/07/20 12:39:23;;;;;;;6.22;3.22;;;;;;;34.10;35.95;100158.47;4879794;29;20059;-73
2021/07/20 12:42:40;;;;;;;8.88;3.15;;;;;;;34.02;35.54;100159.91;4868250;29;20060;-72
2021/07/20 12:45:46;;;;;;;8.15;3.47;;;;;;;34.14;35.60;100164.28;4879593;29;20060;-72
2021/07/20 12:48:52;;;;;;;5.82;3.67;;;;;;;34.28;36.01;100165.25;4879323;29;20052;-72
2021/07/20 12:51:57;;;;;;;10.30;4.40;;;;;;;34.06;36.07;100176.06;4879552;29;20052;-72
2021/07/20 12:55:05;;;;;;;5.88;4.18;;;;;;;34.09;35.69;100170.75;4879632;29;20045;-73
2021/07/20 12:58:12;;;;;;;12.88;3.85;;;;;;;34.16;35.29;100168.44;4878821;29;20068;-73
2021/07/20 13:01:21;;;;;;;8.30;3.90;;;;;;;34.24;35.97;100167.81;4874797;29;20512;-72
2021/07/20 13:04:26;;;;;;;7.05;3.97;;;;;;;34.38;35.62;100165.16;4879227;29;20056;-72
2021/07/20 13:07:34;;;;;;;7.97;4.18;;;;;;;34.37;36.17;100177.44;4879451;29;20052;-72
2021/07/20 13:10:39;;;;;;;5.80;3.95;;;;;;;34.54;35.45;100186.19;4879319;29;20142;-72
2021/07/20 13:13:45;;;;;;;12.55;3.75;;;;;;;34.67;35.36;100179.88;4879012;29;20056;-73
2021/07/20 13:16:50;;;;;;;7.18;3.83;;;;;;;34.39;35.73;100178.81;4867402;29;20056;-73
2021/07/20 13:19:57;;;;;;;9.43;4.20;;;;;;;34.48;35.05;100182.59;4879007;29;20052;-72
2021/07/20 13:23:02;;;;;;;8.40;4.32;;;;;;;34.71;35.48;100188.50;4879409;29;20181;-72
2021/07/20 13:26:07;;;;;;;7.93;3.90;;;;;;;34.89;34.61;100180.16;4867662;29;20513;-73
2021/07/20 13:29:13;;;;;;;10.63;4.30;;;;;;;34.95;34.59;100187.34;4879537;29;20437;-73
2021/07/20 13:32:18;;;;;;;6.45;4.10;;;;;;;35.00;34.70;100184.50;4879338;29;20064;-73
2021/07/20 13:35:25;;;;;;;10.32;4.13;;;;;;;35.04;34.75;100181.94;4879392;29;20049;-73
2021/07/20 13:38:34;;;;;;;9.10;4.07;;;;;;;35.21;35.27;100185.88;4876548;29;20049;-73
2021/07/20 13:41:40;;;;;;;8.88;3.85;;;;;;;35.39;34.70;100184.22;4878944;29;20437;-73
2021/07/20 13:44:47;;;;;;;7.45;3.78;;;;;;;35.67;33.86;100176.84;4878211;29;20405;-73
2021/07/20 13:48:05;;;;;;;10.57;4.10;;;;;;;35.80;33.15;100178.88;4878153;29;20052;-72
2021/07/20 13:51:10;;;;;;;7.97;3.88;;;;;;;35.78;33.17;100178.31;4868799;29;20057;-73
2021/07/20 13:54:16;;;;;;;11.23;4.50;;;;;;;35.83;33.45;100178.25;4878339;29;20512;-72
2021/07/20 13:57:20;;;;;;;9.15;4.70;;;;;;;35.72;34.22;100179.56;4860212;29;20065;-72
2021/07/20 14:00:27;;;;;;;11.05;4.22;;;;;;;35.67;34.28;100174.91;4877696;29;20159;-73
2021/07/20 14:03:32;;;;;;;6.60;3.95;;;;;;;35.64;34.11;100185.84;4852497;29;20049;-73
2021/07/20 14:06:39;;;;;;;11.52;4.13;;;;;;;35.69;33.19;100177.38;4878641;29;20055;-73
2021/07/20 14:09:44;;;;;;;6.35;3.50;;;;;;;35.60;32.60;100185.63;4878351;29;20053;-73
2021/07/20 14:12:51;;;;;;;7.88;3.38;;;;;;;35.56;31.54;100176.19;4882197;29;20052;-73
2021/07/20 14:15:58;;;;;;;6.80;3.60;;;;;;;35.70;32.76;100179.03;4882134;29;20413;-72
2021/07/20 14:19:03;;;;;;;7.75;3.45;;;;;;;35.76;32.83;100175.84;4881466;29;20060;-72
2021/07/20 14:22:07;;;;;;;5.95;3.00;;;;;;;35.77;31.16;100171.94;4881947;29;20405;-73
2021/07/20 14:25:12;;;;;;;7.35;3.38;;;;;;;35.65;32.06;100165.16;4882355;29;20072;-73
2021/07/20 14:28:20;;;;;;;6.60;2.90;;;;;;;35.66;32.08;100164.00;4881854;29;20170;-72
2021/07/20 14:31:33;;;;;;;5.47;3.20;;;;;;;35.48;31.83;100164.84;4870370;29;20500;-72
2021/07/20 14:34:46;;;;;;;9.57;3.63;;;;;;;35.29;31.44;100165.69;4881306;29;20114;-72
2021/07/20 14:37:54;;;;;;;5.82;3.33;;;;;;;35.20;32.91;100163.88;4870403;29;20056;-72
2021/07/20 14:41:19;;;;;;;6.13;3.35;;;;;;;34.99;33.12;100160.50;4870410;29;20378;-73
2021/07/20 14:44:23;;;;;;;7.53;3.80;;;;;;;35.08;33.38;100161.53;4881645;29;20064;-73
2021/07/20 14:47:31;;;;;;;7.55;3.42;;;;;;;35.11;32.69;100160.09;4881727;29;20060;-73